sensor_id;sensor_type;location;lat;lon;timestamp;pressure;altitude;pressure_sealevel;temperature;humidity
84592;BME280;74826;50.812;16.038;2024-01-10T00:01:48;98167.47;;;-11.55;54.95
84592;BME280;74826;50.812;16.038;2024-01-10T00:04:14;98188.03;;;-11.48;55.13
84592;BME280;74826;50.812;16.038;2024-01-10T00:06:42;98185.34;;;-11.47;54.84
84592;BME280;74826;50.812;16.038;2024-01-10T00:09:07;98145.09;;;-11.69;55.32
84592;BME280;74826;50.812;16.038;2024-01-10T00:11:33;98177.63;;;-11.55;55.01
84592;BME280;74826;50.812;16.038;2024-01-10T00:13:59;98161.56;;;-11.55;55.91
84592;BME280;74826;50.812;16.038;2024-01-10T00:16:28;98163.03;;;-11.53;54.99
84592;BME280;74826;50.812;16.038;2024-01-10T00:18:53;98195.38;;;-11.28;55.89
84592;BME280;74826;50.812;16.038;2024-01-10T00:21:19;98188.91;;;-11.22;54.88
84592;BME280;74826;50.812;16.038;2024-01-10T00:23:47;98191.28;;;-11.21;55.33
84592;BME280;74826;50.812;16.038;2024-01-10T00:26:13;98188.09;;;-11.23;55.12
84592;BME280;74826;50.812;16.038;2024-01-10T00:28:38;98162.44;;;-11.29;55.83
84592;BME280;74826;50.812;16.038;2024-01-10T00:31:03;98126.19;;;-11.66;56.06
84592;BME280;74826;50.812;16.038;2024-01-10T00:33:29;98119.78;;;-11.70;55.30
84592;BME280;74826;50.812;16.038;2024-01-10T00:35:54;98157.56;;;-11.58;55.34
84592;BME280;74826;50.812;16.038;2024-01-10T00:38:20;98168.63;;;-11.32;54.57
84592;BME280;74826;50.812;16.038;2024-01-10T00:40:45;98168.03;;;-11.26;55.65
84592;BME280;74826;50.812;16.038;2024-01-10T00:43:11;98178.50;;;-11.29;55.57
84592;BME280;74826;50.812;16.038;2024-01-10T00:45:36;98159.28;;;-11.41;55.08
84592;BME280;74826;50.812;16.038;2024-01-10T00:48:02;98143.38;;;-11.43;55.22
84592;BME280;74826;50.812;16.038;2024-01-10T00:50:27;98167.66;;;-11.31;56.21
84592;BME280;74826;50.812;16.038;2024-01-10T00:52:53;98135.88;;;-11.62;55.11
84592;BME280;74826;50.812;16.038;2024-01-10T00:55:19;98173.47;;;-11.38;56.53
84592;BME280;74826;50.812;16.038;2024-01-10T00:57:44;98153.50;;;-11.51;58.28
84592;BME280;74826;50.812;16.038;2024-01-10T01:00:10;98142.00;;;-11.55;56.88
84592;BME280;74826;50.812;16.038;2024-01-10T01:02:36;98158.00;;;-11.45;57.80
84592;BME280;74826;50.812;16.038;2024-01-10T01:05:05;98140.69;;;-11.59;57.47
84592;BME280;74826;50.812;16.038;2024-01-10T01:07:32;98139.22;;;-11.44;57.67
84592;BME280;74826;50.812;16.038;2024-01-10T01:09:57;98134.44;;;-11.47;55.23
84592;BME280;74826;50.812;16.038;2024-01-10T01:12:22;98149.41;;;-11.44;54.35
84592;BME280;74826;50.812;16.038;2024-01-10T01:14:48;98124.84;;;-11.53;54.56
84592;BME280;74826;50.812;16.038;2024-01-10T01:17:13;98167.66;;;-11.31;55.37
84592;BME280;74826;50.812;16.038;2024-01-10T01:19:39;98157.94;;;-11.35;55.59
84592;BME280;74826;50.812;16.038;2024-01-10T01:22:04;98142.78;;;-11.54;54.83
84592;BME280;74826;50.812;16.038;2024-01-10T01:24:30;98163.38;;;-11.48;56.16
84592;BME280;74826;50.812;16.038;2024-01-10T01:29:20;98165.09;;;-11.31;54.21
84592;BME280;74826;50.812;16.038;2024-01-10T01:31:47;98174.56;;;-11.41;54.50
84592;BME280;74826;50.812;16.038;2024-01-10T01:34:12;98148.03;;;-11.56;53.68
84592;BME280;74826;50.812;16.038;2024-01-10T01:36:38;98169.19;;;-11.38;54.05
84592;BME280;74826;50.812;16.038;2024-01-10T01:39:03;98114.56;;;-11.69;55.30
84592;BME280;74826;50.812;16.038;2024-01-10T01:41:29;98128.25;;;-11.62;54.73
84592;BME280;74826;50.812;16.038;2024-01-10T01:43:54;98145.47;;;-11.56;56.20
84592;BME280;74826;50.812;16.038;2024-01-10T01:46:20;98165.00;;;-11.47;56.13
84592;BME280;74826;50.812;16.038;2024-01-10T01:48:46;98168.13;;;-11.53;56.86
84592;BME280;74826;50.812;16.038;2024-01-10T01:51:12;98163.38;;;-11.48;56.56
84592;BME280;74826;50.812;16.038;2024-01-10T01:53:40;98164.53;;;-11.60;56.88
84592;BME280;74826;50.812;16.038;2024-01-10T01:56:08;98085.38;;;-12.10;56.70
84592;BME280;74826;50.812;16.038;2024-01-10T01:58:34;98048.59;;;-12.33;57.40
84592;BME280;74826;50.812;16.038;2024-01-10T02:01:02;98147.03;;;-11.63;57.44
84592;BME280;74826;50.812;16.038;2024-01-10T02:03:28;98137.50;;;-11.61;56.56
84592;BME280;74826;50.812;16.038;2024-01-10T02:05:54;98141.19;;;-11.55;54.96
84592;BME280;74826;50.812;16.038;2024-01-10T02:08:20;98127.31;;;-11.61;55.60
84592;BME280;74826;50.812;16.038;2024-01-10T02:10:45;98149.63;;;-11.37;54.81
84592;BME280;74826;50.812;16.038;2024-01-10T02:13:11;98152.91;;;-11.45;55.17
84592;BME280;74826;50.812;16.038;2024-01-10T02:15:37;98154.19;;;-11.41;54.70
84592;BME280;74826;50.812;16.038;2024-01-10T02:18:03;98146.78;;;-11.52;55.20
84592;BME280;74826;50.812;16.038;2024-01-10T02:20:31;98129.59;;;-11.75;55.02
84592;BME280;74826;50.812;16.038;2024-01-10T02:22:56;98130.38;;;-11.75;55.35
84592;BME280;74826;50.812;16.038;2024-01-10T02:25:22;98106.41;;;-11.90;55.13
84592;BME280;74826;50.812;16.038;2024-01-10T02:27:47;98108.28;;;-11.92;54.82
84592;BME280;74826;50.812;16.038;2024-01-10T02:30:13;98107.78;;;-11.96;54.91
84592;BME280;74826;50.812;16.038;2024-01-10T02:32:39;98042.53;;;-12.49;55.49
84592;BME280;74826;50.812;16.038;2024-01-10T02:35:05;98112.91;;;-12.05;55.33
84592;BME280;74826;50.812;16.038;2024-01-10T02:37:30;98134.75;;;-11.85;55.43
84592;BME280;74826;50.812;16.038;2024-01-10T02:39:56;98137.94;;;-11.83;56.34
84592;BME280;74826;50.812;16.038;2024-01-10T02:42:22;98118.91;;;-11.79;55.93
84592;BME280;74826;50.812;16.038;2024-01-10T02:44:47;98137.00;;;-11.64;55.57
84592;BME280;74826;50.812;16.038;2024-01-10T02:47:13;98142.94;;;-11.56;54.85
84592;BME280;74826;50.812;16.038;2024-01-10T02:49:38;98159.00;;;-11.38;55.08
84592;BME280;74826;50.812;16.038;2024-01-10T02:52:04;98136.09;;;-11.55;55.84
84592;BME280;74826;50.812;16.038;2024-01-10T02:54:30;98125.38;;;-11.67;54.80
84592;BME280;74826;50.812;16.038;2024-01-10T02:56:55;98160.75;;;-11.56;55.91
84592;BME280;74826;50.812;16.038;2024-01-10T02:59:21;98127.75;;;-11.83;55.36
84592;BME280;74826;50.812;16.038;2024-01-10T03:01:46;98154.34;;;-11.60;55.70
84592;BME280;74826;50.812;16.038;2024-01-10T03:04:12;98143.78;;;-11.73;55.72
84592;BME280;74826;50.812;16.038;2024-01-10T03:06:37;98121.09;;;-11.84;56.25
84592;BME280;74826;50.812;16.038;2024-01-10T03:09:03;98164.47;;;-11.68;55.34
84592;BME280;74826;50.812;16.038;2024-01-10T03:11:28;98107.25;;;-11.99;54.95
84592;BME280;74826;50.812;16.038;2024-01-10T03:14:07;98157.81;;;-11.69;56.01
84592;BME280;74826;50.812;16.038;2024-01-10T03:16:34;98144.84;;;-11.75;54.98
84592;BME280;74826;50.812;16.038;2024-01-10T03:19:00;98088.75;;;-12.09;55.36
84592;BME280;74826;50.812;16.038;2024-01-10T03:21:26;98132.50;;;-11.88;54.42
84592;BME280;74826;50.812;16.038;2024-01-10T03:23:59;98139.69;;;-11.66;53.95
84592;BME280;74826;50.812;16.038;2024-01-10T03:26:26;98104.72;;;-11.81;54.67
84592;BME280;74826;50.812;16.038;2024-01-10T03:28:52;98128.81;;;-11.76;55.78
84592;BME280;74826;50.812;16.038;2024-01-10T03:31:17;98105.53;;;-11.81;55.95
84592;BME280;74826;50.812;16.038;2024-01-10T03:33:43;98079.09;;;-11.88;56.02
84592;BME280;74826;50.812;16.038;2024-01-10T03:36:11;98132.91;;;-11.57;56.06
84592;BME280;74826;50.812;16.038;2024-01-10T03:38:37;98087.72;;;-11.99;56.17
84592;BME280;74826;50.812;16.038;2024-01-10T03:41:03;98111.63;;;-11.74;55.75
84592;BME280;74826;50.812;16.038;2024-01-10T03:43:28;98135.19;;;-11.72;56.26
84592;BME280;74826;50.812;16.038;2024-01-10T03:45:54;98130.38;;;-11.75;55.43
84592;BME280;74826;50.812;16.038;2024-01-10T03:48:20;98117.00;;;-11.77;56.18
84592;BME280;74826;50.812;16.038;2024-01-10T03:50:45;98085.59;;;-11.85;54.14
84592;BME280;74826;50.812;16.038;2024-01-10T03:53:11;98116.13;;;-11.68;54.22
84592;BME280;74826;50.812;16.038;2024-01-10T03:55:36;98066.44;;;-12.15;54.21
84592;BME280;74826;50.812;16.038;2024-01-10T03:58:02;98096.81;;;-11.96;56.14
84592;BME280;74826;50.812;16.038;2024-01-10T04:00:27;98064.53;;;-12.13;55.79
84592;BME280;74826;50.812;16.038;2024-01-10T04:02:53;98064.75;;;-12.07;55.08
84592;BME280;74826;50.812;16.038;2024-01-10T04:05:18;98093.75;;;-12.00;55.34
84592;BME280;74826;50.812;16.038;2024-01-10T04:07:45;98125.00;;;-11.72;55.51
84592;BME280;74826;50.812;16.038;2024-01-10T04:10:12;98061.34;;;-12.15;55.49
84592;BME280;74826;50.812;16.038;2024-01-10T04:12:43;98098.03;;;-12.00;55.65
84592;BME280;74826;50.812;16.038;2024-01-10T04:15:09;98123.72;;;-11.76;55.61
84592;BME280;74826;50.812;16.038;2024-01-10T04:17:35;98128.16;;;-11.78;56.53
84592;BME280;74826;50.812;16.038;2024-01-10T04:20:01;98111.19;;;-11.87;56.43
84592;BME280;74826;50.812;16.038;2024-01-10T04:22:27;98086.63;;;-11.96;56.70
84592;BME280;74826;50.812;16.038;2024-01-10T04:24:52;98077.13;;;-11.94;56.66
84592;BME280;74826;50.812;16.038;2024-01-10T04:27:18;98101.09;;;-11.79;57.62
84592;BME280;74826;50.812;16.038;2024-01-10T04:29:44;98112.03;;;-11.61;58.21
84592;BME280;74826;50.812;16.038;2024-01-10T04:32:10;98092.47;;;-11.86;58.44
84592;BME280;74826;50.812;16.038;2024-01-10T04:34:35;98060.16;;;-12.03;58.24
84592;BME280;74826;50.812;16.038;2024-01-10T04:37:01;98081.53;;;-11.96;57.98
84592;BME280;74826;50.812;16.038;2024-01-10T04:39:26;98112.66;;;-11.67;57.16
84592;BME280;74826;50.812;16.038;2024-01-10T04:41:52;98099.50;;;-11.80;56.95
84592;BME280;74826;50.812;16.038;2024-01-10T04:44:17;98085.47;;;-11.84;55.69
84592;BME280;74826;50.812;16.038;2024-01-10T04:46:43;98142.28;;;-11.58;56.03
84592;BME280;74826;50.812;16.038;2024-01-10T04:49:08;98117.09;;;-11.86;54.92
84592;BME280;74826;50.812;16.038;2024-01-10T04:51:34;98106.25;;;-11.88;54.31
84592;BME280;74826;50.812;16.038;2024-01-10T04:53:59;98120.63;;;-11.62;55.41
84592;BME280;74826;50.812;16.038;2024-01-10T04:56:25;98113.25;;;-11.73;56.41
84592;BME280;74826;50.812;16.038;2024-01-10T04:58:51;98100.66;;;-11.74;56.45
84592;BME280;74826;50.812;16.038;2024-01-10T05:01:17;98117.41;;;-11.64;55.96
84592;BME280;74826;50.812;16.038;2024-01-10T05:03:42;98089.75;;;-11.67;56.21
84592;BME280;74826;50.812;16.038;2024-01-10T05:06:08;98116.56;;;-11.55;57.01
84592;BME280;74826;50.812;16.038;2024-01-10T05:08:33;98090.00;;;-11.78;56.20
84592;BME280;74826;50.812;16.038;2024-01-10T05:10:59;98106.25;;;-11.71;57.24
84592;BME280;74826;50.812;16.038;2024-01-10T05:13:24;98087.38;;;-11.86;56.09
84592;BME280;74826;50.812;16.038;2024-01-10T05:15:50;98133.41;;;-11.54;54.51
84592;BME280;74826;50.812;16.038;2024-01-10T05:18:16;98088.44;;;-11.88;54.82
84592;BME280;74826;50.812;16.038;2024-01-10T05:20:42;98115.13;;;-11.75;54.57
84592;BME280;74826;50.812;16.038;2024-01-10T05:23:07;98043.53;;;-12.33;53.77
84592;BME280;74826;50.812;16.038;2024-01-10T05:25:33;98113.06;;;-11.89;54.34
84592;BME280;74826;50.812;16.038;2024-01-10T05:27:58;98066.78;;;-12.10;56.32
84592;BME280;74826;50.812;16.038;2024-01-10T05:30:24;98093.69;;;-11.90;55.88
84592;BME280;74826;50.812;16.038;2024-01-10T05:32:49;97999.56;;;-12.60;55.72
84592;BME280;74826;50.812;16.038;2024-01-10T05:35:15;98129.28;;;-11.90;56.93
84592;BME280;74826;50.812;16.038;2024-01-10T05:37:41;98080.16;;;-12.08;57.16
84592;BME280;74826;50.812;16.038;2024-01-10T05:40:07;98123.72;;;-11.76;56.80
84592;BME280;74826;50.812;16.038;2024-01-10T05:42:32;98046.94;;;-12.24;56.54
84592;BME280;74826;50.812;16.038;2024-01-10T05:45:01;98145.28;;;-11.62;57.16
84592;BME280;74826;50.812;16.038;2024-01-10T05:47:27;98136.03;;;-11.63;56.13
84592;BME280;74826;50.812;16.038;2024-01-10T05:49:53;98127.94;;;-11.67;55.07
84592;BME280;74826;50.812;16.038;2024-01-10T05:52:19;98140.38;;;-11.56;55.41
84592;BME280;74826;50.812;16.038;2024-01-10T05:54:45;98139.47;;;-11.55;54.63
84592;BME280;74826;50.812;16.038;2024-01-10T05:57:13;98109.22;;;-11.75;54.31
84592;BME280;74826;50.812;16.038;2024-01-10T05:59:39;98138.44;;;-11.62;54.01
84592;BME280;74826;50.812;16.038;2024-01-10T06:02:04;98098.63;;;-11.88;55.59
84592;BME280;74826;50.812;16.038;2024-01-10T06:04:30;98116.50;;;-11.98;55.81
84592;BME280;74826;50.812;16.038;2024-01-10T06:07:01;98132.84;;;-11.83;55.87
84592;BME280;74826;50.812;16.038;2024-01-10T06:09:27;98146.81;;;-11.87;56.57
84592;BME280;74826;50.812;16.038;2024-01-10T06:11:52;98137.00;;;-11.82;55.73
84592;BME280;74826;50.812;16.038;2024-01-10T06:14:18;98079.72;;;-12.21;56.19
84592;BME280;74826;50.812;16.038;2024-01-10T06:16:44;98115.84;;;-12.00;54.51
84592;BME280;74826;50.812;16.038;2024-01-10T06:19:10;98136.13;;;-11.73;54.78
84592;BME280;74826;50.812;16.038;2024-01-10T06:21:36;98127.34;;;-11.78;55.75
84592;BME280;74826;50.812;16.038;2024-01-10T06:24:02;98049.19;;;-12.39;56.35
84592;BME280;74826;50.812;16.038;2024-01-10T06:26:27;98119.72;;;-11.78;56.73
84592;BME280;74826;50.812;16.038;2024-01-10T06:28:53;98101.44;;;-12.09;57.08
84592;BME280;74826;50.812;16.038;2024-01-10T06:31:18;98123.06;;;-12.05;57.44
84592;BME280;74826;50.812;16.038;2024-01-10T06:33:45;98060.38;;;-12.59;59.63
84592;BME280;74826;50.812;16.038;2024-01-10T06:36:10;98127.72;;;-12.18;58.87
84592;BME280;74826;50.812;16.038;2024-01-10T06:38:36;98094.88;;;-12.29;57.83
84592;BME280;74826;50.812;16.038;2024-01-10T06:41:07;98095.22;;;-12.24;57.57
84592;BME280;74826;50.812;16.038;2024-01-10T06:43:33;98110.25;;;-12.04;55.76
84592;BME280;74826;50.812;16.038;2024-01-10T06:45:59;98069.09;;;-12.17;55.10
84592;BME280;74826;50.812;16.038;2024-01-10T06:48:25;98118.47;;;-11.92;55.26
84592;BME280;74826;50.812;16.038;2024-01-10T06:50:50;98011.31;;;-12.59;55.31
84592;BME280;74826;50.812;16.038;2024-01-10T06:53:16;98113.16;;;-11.99;55.13
84592;BME280;74826;50.812;16.038;2024-01-10T06:55:41;98100.56;;;-12.00;55.86
84592;BME280;74826;50.812;16.038;2024-01-10T06:58:07;98115.34;;;-11.86;56.04
84592;BME280;74826;50.812;16.038;2024-01-10T07:00:32;98134.09;;;-11.69;55.43
84592;BME280;74826;50.812;16.038;2024-01-10T07:03:01;98083.19;;;-12.05;55.36
84592;BME280;74826;50.812;16.038;2024-01-10T07:05:27;98071.28;;;-12.04;55.55
84592;BME280;74826;50.812;16.038;2024-01-10T07:07:53;98088.75;;;-11.92;54.93
84592;BME280;74826;50.812;16.038;2024-01-10T07:10:18;98144.13;;;-11.68;54.62
84592;BME280;74826;50.812;16.038;2024-01-10T07:12:44;98104.59;;;-11.98;55.20
84592;BME280;74826;50.812;16.038;2024-01-10T07:15:10;98066.13;;;-12.12;55.37
84592;BME280;74826;50.812;16.038;2024-01-10T07:17:37;98117.25;;;-11.88;55.51
84592;BME280;74826;50.812;16.038;2024-01-10T07:20:03;98133.00;;;-11.67;55.58
84592;BME280;74826;50.812;16.038;2024-01-10T07:22:28;98104.78;;;-11.91;56.10
84592;BME280;74826;50.812;16.038;2024-01-10T07:24:54;98136.53;;;-11.60;56.79
84592;BME280;74826;50.812;16.038;2024-01-10T07:27:19;98074.25;;;-11.91;55.75
84592;BME280;74826;50.812;16.038;2024-01-10T07:29:44;98120.28;;;-11.67;56.02
84592;BME280;74826;50.812;16.038;2024-01-10T07:32:11;98123.13;;;-11.70;56.41
84592;BME280;74826;50.812;16.038;2024-01-10T07:34:39;98131.09;;;-11.65;56.68
84592;BME280;74826;50.812;16.038;2024-01-10T07:37:05;98069.56;;;-11.86;55.96
84592;BME280;74826;50.812;16.038;2024-01-10T07:39:31;98125.03;;;-11.46;56.59
84592;BME280;74826;50.812;16.038;2024-01-10T07:41:56;98119.28;;;-11.31;56.86
84592;BME280;74826;50.812;16.038;2024-01-10T07:44:23;98122.69;;;-11.22;57.04
84592;BME280;74826;50.812;16.038;2024-01-10T07:46:48;98136.09;;;-10.94;56.97
84592;BME280;74826;50.812;16.038;2024-01-10T07:49:16;98129.84;;;-10.74;56.08
84592;BME280;74826;50.812;16.038;2024-01-10T07:51:41;98119.69;;;-10.66;55.90
84592;BME280;74826;50.812;16.038;2024-01-10T07:54:07;98108.97;;;-10.44;55.88
84592;BME280;74826;50.812;16.038;2024-01-10T07:56:32;98138.59;;;-10.10;55.79
84592;BME280;74826;50.812;16.038;2024-01-10T07:58:58;98140.03;;;-9.99;55.30
84592;BME280;74826;50.812;16.038;2024-01-10T08:01:23;98129.22;;;-9.93;57.44
84592;BME280;74826;50.812;16.038;2024-01-10T08:03:48;98118.63;;;-10.06;57.34
84592;BME280;74826;50.812;16.038;2024-01-10T08:06:14;98128.59;;;-9.79;57.72
84592;BME280;74826;50.812;16.038;2024-01-10T08:08:39;98146.34;;;-9.53;57.75
84592;BME280;74826;50.812;16.038;2024-01-10T08:11:04;98151.00;;;-9.25;58.80
84592;BME280;74826;50.812;16.038;2024-01-10T08:13:30;98139.31;;;-8.87;57.00
84592;BME280;74826;50.812;16.038;2024-01-10T08:15:56;98120.91;;;-8.66;55.78
84592;BME280;74826;50.812;16.038;2024-01-10T08:18:22;98134.16;;;-8.16;54.43
84592;BME280;74826;50.812;16.038;2024-01-10T08:20:48;98137.84;;;-7.88;54.40
84592;BME280;74826;50.812;16.038;2024-01-10T08:23:13;98122.75;;;-7.75;54.53
84592;BME280;74826;50.812;16.038;2024-01-10T08:25:39;98147.50;;;-7.45;53.72
84592;BME280;74826;50.812;16.038;2024-01-10T08:28:05;98089.63;;;-7.54;54.06
84592;BME280;74826;50.812;16.038;2024-01-10T08:30:31;98142.81;;;-6.96;52.41
84592;BME280;74826;50.812;16.038;2024-01-10T08:32:57;98123.50;;;-6.69;51.85
84592;BME280;74826;50.812;16.038;2024-01-10T08:35:23;98128.56;;;-6.32;51.95
84592;BME280;74826;50.812;16.038;2024-01-10T08:37:48;98097.41;;;-6.58;50.98
84592;BME280;74826;50.812;16.038;2024-01-10T08:40:14;98110.47;;;-6.82;52.46
84592;BME280;74826;50.812;16.038;2024-01-10T08:42:41;98128.63;;;-6.69;54.15
84592;BME280;74826;50.812;16.038;2024-01-10T08:45:07;98112.00;;;-6.29;52.54
84592;BME280;74826;50.812;16.038;2024-01-10T08:47:35;98123.16;;;-5.87;52.60
84592;BME280;74826;50.812;16.038;2024-01-10T08:50:01;98134.84;;;-5.49;52.66
84592;BME280;74826;50.812;16.038;2024-01-10T08:52:27;98126.81;;;-5.39;52.39
84592;BME280;74826;50.812;16.038;2024-01-10T08:54:52;98130.88;;;-4.81;52.04
84592;BME280;74826;50.812;16.038;2024-01-10T08:57:17;98129.72;;;-4.44;50.44
84592;BME280;74826;50.812;16.038;2024-01-10T08:59:43;98119.38;;;-4.17;49.56
84592;BME280;74826;50.812;16.038;2024-01-10T09:02:09;98121.91;;;-3.83;48.72
84592;BME280;74826;50.812;16.038;2024-01-10T09:04:34;98098.59;;;-3.48;47.92
84592;BME280;74826;50.812;16.038;2024-01-10T09:07:00;98106.56;;;-3.17;46.28
84592;BME280;74826;50.812;16.038;2024-01-10T09:09:25;98106.34;;;-2.96;46.48
84592;BME280;74826;50.812;16.038;2024-01-10T09:11:50;98118.25;;;-2.56;46.61
84592;BME280;74826;50.812;16.038;2024-01-10T09:14:16;98118.41;;;-2.25;46.33
84592;BME280;74826;50.812;16.038;2024-01-10T09:16:41;98130.69;;;-2.14;45.67
84592;BME280;74826;50.812;16.038;2024-01-10T09:19:06;98114.28;;;-1.82;44.09
84592;BME280;74826;50.812;16.038;2024-01-10T09:21:33;98115.50;;;-1.46;43.23
84592;BME280;74826;50.812;16.038;2024-01-10T09:23:58;98132.69;;;-1.27;45.62
84592;BME280;74826;50.812;16.038;2024-01-10T09:26:23;98124.69;;;-1.19;43.54
84592;BME280;74826;50.812;16.038;2024-01-10T09:28:49;98129.13;;;-0.77;42.39
84592;BME280;74826;50.812;16.038;2024-01-10T09:31:14;98124.13;;;-0.54;42.76
84592;BME280;74826;50.812;16.038;2024-01-10T09:33:40;98088.56;;;-0.47;42.83
84592;BME280;74826;50.812;16.038;2024-01-10T09:36:06;98118.25;;;-0.25;42.47
84592;BME280;74826;50.812;16.038;2024-01-10T09:38:35;98120.44;;;-0.04;41.68
84592;BME280;74826;50.812;16.038;2024-01-10T09:41:02;98094.34;;;0.39;41.39
84592;BME280;74826;50.812;16.038;2024-01-10T09:43:30;98095.16;;;0.40;39.33
84592;BME280;74826;50.812;16.038;2024-01-10T09:45:55;98108.53;;;-0.11;41.60
84592;BME280;74826;50.812;16.038;2024-01-10T09:48:22;98104.28;;;-0.06;42.19
84592;BME280;74826;50.812;16.038;2024-01-10T09:50:50;98076.25;;;0.21;43.05
84592;BME280;74826;50.812;16.038;2024-01-10T09:53:24;98094.63;;;1.02;41.65
84592;BME280;74826;50.812;16.038;2024-01-10T09:55:50;98094.66;;;1.48;40.04
84592;BME280;74826;50.812;16.038;2024-01-10T09:58:16;98076.81;;;1.29;39.11
84592;BME280;74826;50.812;16.038;2024-01-10T10:00:41;98071.94;;;1.55;40.68
84592;BME280;74826;50.812;16.038;2024-01-10T10:03:10;98088.50;;;2.29;40.08
84592;BME280;74826;50.812;16.038;2024-01-10T10:05:38;98064.72;;;2.09;39.06
84592;BME280;74826;50.812;16.038;2024-01-10T10:08:07;98075.50;;;2.29;38.82
84592;BME280;74826;50.812;16.038;2024-01-10T10:10:32;98081.44;;;2.86;37.24
84592;BME280;74826;50.812;16.038;2024-01-10T10:12:58;98086.03;;;3.28;35.12
84592;BME280;74826;50.812;16.038;2024-01-10T10:15:24;98089.75;;;3.71;35.27
84592;BME280;74826;50.812;16.038;2024-01-10T10:17:53;98086.44;;;3.75;35.84
84592;BME280;74826;50.812;16.038;2024-01-10T10:20:26;98081.09;;;3.87;35.17
84592;BME280;74826;50.812;16.038;2024-01-10T10:23:08;98083.66;;;4.25;34.80
84592;BME280;74826;50.812;16.038;2024-01-10T10:25:43;98071.88;;;4.49;35.51
84592;BME280;74826;50.812;16.038;2024-01-10T10:28:08;98078.53;;;4.88;34.02
84592;BME280;74826;50.812;16.038;2024-01-10T10:30:34;98074.47;;;5.02;35.00
84592;BME280;74826;50.812;16.038;2024-01-10T10:33:02;98079.88;;;5.27;33.52
84592;BME280;74826;50.812;16.038;2024-01-10T10:35:28;98065.97;;;4.85;33.54
84592;BME280;74826;50.812;16.038;2024-01-10T10:37:53;98066.31;;;5.30;32.76
84592;BME280;74826;50.812;16.038;2024-01-10T10:40:20;98056.50;;;5.53;33.61
84592;BME280;74826;50.812;16.038;2024-01-10T10:42:47;98071.09;;;5.85;33.28
84592;BME280;74826;50.812;16.038;2024-01-10T10:45:17;98074.06;;;6.04;33.69
84592;BME280;74826;50.812;16.038;2024-01-10T10:47:44;98064.72;;;6.38;32.55
84592;BME280;74826;50.812;16.038;2024-01-10T10:50:20;98063.63;;;6.14;35.10
84592;BME280;74826;50.812;16.038;2024-01-10T10:52:46;98060.78;;;6.25;35.03
84592;BME280;74826;50.812;16.038;2024-01-10T10:55:16;98065.34;;;7.05;32.37
84592;BME280;74826;50.812;16.038;2024-01-10T10:57:46;98060.63;;;7.22;32.43
84592;BME280;74826;50.812;16.038;2024-01-10T11:00:13;98056.63;;;7.60;32.13
84592;BME280;74826;50.812;16.038;2024-01-10T11:02:43;98043.25;;;7.52;31.50
84592;BME280;74826;50.812;16.038;2024-01-10T11:05:09;98062.38;;;7.67;32.77
84592;BME280;74826;50.812;16.038;2024-01-10T11:07:40;98073.69;;;7.48;33.28
84592;BME280;74826;50.812;16.038;2024-01-10T11:10:12;98059.41;;;7.89;32.53
84592;BME280;74826;50.812;16.038;2024-01-10T11:13:00;98040.41;;;8.17;31.18
84592;BME280;74826;50.812;16.038;2024-01-10T11:18:19;98056.44;;;8.64;31.84
84592;BME280;74826;50.812;16.038;2024-01-10T11:23:51;98036.75;;;8.95;29.15
84592;BME280;74826;50.812;16.038;2024-01-10T11:26:19;98048.28;;;9.33;29.26
84592;BME280;74826;50.812;16.038;2024-01-10T11:28:46;98041.34;;;9.66;28.97
84592;BME280;74826;50.812;16.038;2024-01-10T11:31:13;98039.22;;;9.68;27.98
84592;BME280;74826;50.812;16.038;2024-01-10T11:33:40;98015.22;;;9.93;26.71
84592;BME280;74826;50.812;16.038;2024-01-10T11:46:46;98021.25;;;11.37;25.53
84592;BME280;74826;50.812;16.038;2024-01-10T11:49:16;98029.97;;;11.38;25.07
84592;BME280;74826;50.812;16.038;2024-01-10T11:51:43;98019.84;;;11.72;24.76
84592;BME280;74826;50.812;16.038;2024-01-10T11:54:09;98027.06;;;11.94;24.44
84592;BME280;74826;50.812;16.038;2024-01-10T11:56:42;98020.63;;;11.86;24.73
84592;BME280;74826;50.812;16.038;2024-01-10T11:59:09;98009.78;;;11.74;26.05
84592;BME280;74826;50.812;16.038;2024-01-10T12:01:36;98019.34;;;11.97;24.33
84592;BME280;74826;50.812;16.038;2024-01-10T12:04:03;98015.25;;;11.91;25.72
84592;BME280;74826;50.812;16.038;2024-01-10T12:06:29;98028.63;;;12.08;25.61
84592;BME280;74826;50.812;16.038;2024-01-10T12:08:55;98007.88;;;11.88;25.54
84592;BME280;74826;50.812;16.038;2024-01-10T12:11:21;98022.25;;;12.09;25.14
84592;BME280;74826;50.812;16.038;2024-01-10T12:13:47;98027.34;;;12.19;24.98
84592;BME280;74826;50.812;16.038;2024-01-10T12:16:13;98020.91;;;12.47;26.01
84592;BME280;74826;50.812;16.038;2024-01-10T12:18:40;97982.28;;;12.46;24.73
84592;BME280;74826;50.812;16.038;2024-01-10T12:21:05;98006.00;;;12.74;23.71
84592;BME280;74826;50.812;16.038;2024-01-10T12:23:31;98018.31;;;13.14;24.68
84592;BME280;74826;50.812;16.038;2024-01-10T12:26:08;98009.63;;;13.22;23.60
84592;BME280;74826;50.812;16.038;2024-01-10T12:28:35;98013.66;;;12.97;24.04
84592;BME280;74826;50.812;16.038;2024-01-10T12:31:01;98009.88;;;12.90;24.81
84592;BME280;74826;50.812;16.038;2024-01-10T12:33:27;98007.63;;;13.58;24.38
84592;BME280;74826;50.812;16.038;2024-01-10T12:36:21;98008.44;;;13.28;25.16
84592;BME280;74826;50.812;16.038;2024-01-10T12:38:47;98010.91;;;13.64;23.79
84592;BME280;74826;50.812;16.038;2024-01-10T12:41:17;97991.16;;;13.78;22.93
84592;BME280;74826;50.812;16.038;2024-01-10T12:43:48;97997.50;;;13.60;22.52
84592;BME280;74826;50.812;16.038;2024-01-10T12:46:14;98001.81;;;13.95;22.64
84592;BME280;74826;50.812;16.038;2024-01-10T12:48:40;97987.50;;;14.13;22.40
84592;BME280;74826;50.812;16.038;2024-01-10T12:51:10;97987.47;;;13.96;25.17
84592;BME280;74826;50.812;16.038;2024-01-10T12:53:42;97972.59;;;13.87;23.63
84592;BME280;74826;50.812;16.038;2024-01-10T12:56:08;97983.88;;;14.01;24.65
84592;BME280;74826;50.812;16.038;2024-01-10T12:58:35;97980.28;;;14.05;25.04
84592;BME280;74826;50.812;16.038;2024-01-10T13:01:04;97980.16;;;14.19;24.30